createdAt,value
2018-12-25T00:00:59.512Z,102607.20
2018-12-25T00:03:40.779Z,102561.58
2018-12-25T00:06:21.987Z,102572.52
2018-12-25T00:09:24.968Z,102610.70
2018-12-25T00:12:06.222Z,102572.66
2018-12-25T00:14:47.405Z,102612.46
2018-12-25T00:17:28.963Z,102617.66
2018-12-25T00:19:50.451Z,102575.77
2018-12-25T00:22:11.722Z,102578.45
2018-12-25T00:24:33.023Z,102612.99
2018-12-25T00:26:54.311Z,102610.90
2018-12-25T00:29:15.577Z,102612.75
2018-12-25T00:31:36.861Z,102571.13
2018-12-25T00:33:58.124Z,102601.33
2018-12-25T00:36:39.283Z,102603.13
2018-12-25T00:39:00.516Z,102606.73
2018-12-25T00:41:22.069Z,102600.05
2018-12-25T00:43:43.331Z,102605.03
2018-12-25T00:46:04.585Z,102563.62
2018-12-25T00:48:45.917Z,102568.16
2018-12-25T00:51:07.268Z,102561.38
2018-12-25T00:53:28.548Z,102601.10
2018-12-25T00:55:29.990Z,102597.23
2018-12-25T00:57:51.274Z,102564.86
2018-12-25T01:00:12.544Z,102601.16
2018-12-25T01:02:33.863Z,102598.52
2018-12-25T01:04:55.159Z,102602.81
2018-12-25T01:07:16.456Z,102610.42
2018-12-25T01:09:37.783Z,102580.63
2018-12-25T01:11:59.057Z,102618.76
2018-12-25T01:14:21.065Z,102612.35
2018-12-25T01:16:42.405Z,102585.64
2018-12-25T01:19:03.699Z,102608.09
2018-12-25T01:21:25.201Z,102610.30
2018-12-25T01:23:46.473Z,102609.77
2018-12-25T01:26:07.745Z,102571.27
2018-12-25T01:28:29.071Z,102616.89
2018-12-25T01:30:50.395Z,102617.44
2018-12-25T01:33:11.646Z,102580.16
2018-12-25T01:35:32.974Z,102630.97
2018-12-25T01:37:54.254Z,102628.90
2018-12-25T01:40:15.506Z,102587.01
2018-12-25T01:42:16.937Z,102627.73
2018-12-25T01:44:38.193Z,102627.23
2018-12-25T01:46:59.498Z,102626.55
2018-12-25T01:49:20.751Z,102629.30
2018-12-25T01:51:42.108Z,102634.23
2018-12-25T01:53:57.341Z,102581.60
2018-12-25T01:56:18.615Z,102622.14
2018-12-25T01:58:39.887Z,102586.16
2018-12-25T02:01:01.216Z,102616.95
2018-12-25T02:03:22.595Z,102615.63
2018-12-25T02:05:44.107Z,102569.38
2018-12-25T02:08:25.259Z,102611.89
2018-12-25T02:10:46.571Z,102571.84
2018-12-25T02:13:07.830Z,102566.82
2018-12-25T02:15:29.104Z,102612.63
2018-12-25T02:17:50.425Z,102612.36
2018-12-25T02:20:11.728Z,102574.70
2018-12-25T02:22:33.010Z,102612.20
2018-12-25T02:24:54.324Z,102567.69
2018-12-25T02:27:15.588Z,102572.02
2018-12-25T02:29:36.911Z,102608.02
2018-12-25T02:31:58.254Z,102614.21
2018-12-25T02:34:19.547Z,102572.45
2018-12-25T02:36:40.817Z,102605.78
2018-12-25T02:42:11.841Z,102571.56
2018-12-25T02:44:33.114Z,102606.27
2018-12-25T02:46:54.439Z,102606.59
2018-12-25T02:49:15.735Z,102605.78
2018-12-25T02:51:37.003Z,102599.10
2018-12-25T02:53:51.475Z,102573.23
2018-12-25T02:56:13.042Z,102561.52
2018-12-25T02:58:34.306Z,102566.92
2018-12-25T03:00:55.591Z,102596.70
2018-12-25T03:03:16.874Z,102551.91
2018-12-25T03:05:38.147Z,102585.75
2018-12-25T03:07:59.698Z,102547.52
2018-12-25T03:10:20.934Z,102579.64
2018-12-25T03:12:42.205Z,102543.62
2018-12-25T03:15:23.686Z,102571.94
2018-12-25T03:17:44.959Z,102531.09
2018-12-25T03:20:06.243Z,102569.53
2018-12-25T03:22:27.820Z,102570.20
2018-12-25T03:24:49.100Z,102528.52
2018-12-25T03:27:10.366Z,102531.94
2018-12-25T03:29:11.810Z,102572.15
2018-12-25T03:31:33.069Z,102544.51
2018-12-25T03:33:54.332Z,102573.13
2018-12-25T03:36:15.659Z,102530.77
2018-12-25T03:38:30.901Z,102567.58
2018-12-25T03:40:52.178Z,102568.11
2018-12-25T03:43:13.436Z,102533.75
2018-12-25T03:45:35.059Z,102569.75
2018-12-25T03:47:56.345Z,102543.07
2018-12-25T03:50:17.601Z,102576.92
2018-12-25T03:52:38.902Z,102572.17
2018-12-25T03:55:00.292Z,102579.50
2018-12-25T03:57:21.656Z,102574.59
2018-12-25T03:59:42.923Z,102534.40
2018-12-25T04:02:04.257Z,102576.89
2018-12-25T04:04:25.792Z,102574.09
2018-12-25T04:06:47.035Z,102571.50
2018-12-25T04:09:08.320Z,102580.62
2018-12-25T04:11:29.650Z,102540.39
2018-12-25T04:13:50.905Z,102578.00
2018-12-25T04:16:12.182Z,102550.30
2018-12-25T04:18:14.033Z,102570.13
2018-12-25T04:20:35.303Z,102528.12
2018-12-25T04:22:56.573Z,102563.64
2018-12-25T04:25:17.907Z,102519.31
2018-12-25T04:27:39.178Z,102558.55
2018-12-25T04:30:00.487Z,102553.33
2018-12-25T04:32:21.821Z,102555.45
2018-12-25T04:34:43.086Z,102553.66
2018-12-25T04:37:04.374Z,102553.47
2018-12-25T04:39:19.145Z,102561.97
2018-12-25T04:41:40.418Z,102527.78
2018-12-25T04:44:01.754Z,102561.52
2018-12-25T04:46:23.015Z,102570.62
2018-12-25T04:48:44.276Z,102529.26
2018-12-25T04:51:05.590Z,102568.53
2018-12-25T04:53:26.870Z,102578.64
2018-12-25T04:55:41.867Z,102577.81
2018-12-25T04:58:03.158Z,102536.56
2018-12-25T05:00:24.470Z,102581.38
2018-12-25T05:02:45.735Z,102558.80
2018-12-25T05:05:07.014Z,102577.83
2018-12-25T05:07:28.433Z,102579.44
2018-12-25T05:09:49.705Z,102581.88
2018-12-25T05:12:10.991Z,102541.81
2018-12-25T05:14:32.556Z,102576.00
2018-12-25T05:16:53.837Z,102573.05
2018-12-25T05:19:15.116Z,102536.08
2018-12-25T05:21:36.537Z,102576.80
2018-12-25T05:23:38.236Z,102579.36
2018-12-25T05:25:59.522Z,102538.64
2018-12-25T05:28:20.784Z,102574.31
2018-12-25T05:30:42.330Z,102575.66
2018-12-25T05:33:03.676Z,102532.97
2018-12-25T05:35:24.989Z,102581.52
2018-12-25T05:37:46.341Z,102538.67
2018-12-25T05:40:07.721Z,102575.22
2018-12-25T05:42:29.075Z,102548.52
2018-12-25T05:44:50.339Z,102552.28
2018-12-25T05:47:11.594Z,102541.30
2018-12-25T05:49:35.124Z,102548.66
2018-12-25T05:52:16.312Z,102538.08
2018-12-25T05:54:37.669Z,102540.67
2018-12-25T05:56:52.866Z,102583.01
2018-12-25T06:02:24.871Z,102580.73
2018-12-25T06:04:46.133Z,102551.95
2018-12-25T06:07:07.529Z,102585.20
2018-12-25T06:09:28.868Z,102536.45
2018-12-25T06:11:50.177Z,102575.41
2018-12-25T06:14:11.498Z,102533.06
2018-12-25T06:16:13.164Z,102572.12
2018-12-25T06:18:34.422Z,102569.16
2018-12-25T06:20:55.726Z,102559.91
2018-12-25T06:23:17.069Z,102560.52
2018-12-25T06:25:38.453Z,102522.61
2018-12-25T06:27:59.751Z,102558.75
2018-12-25T06:30:41.122Z,102559.56
2018-12-25T06:33:02.455Z,102555.15
2018-12-25T06:35:23.734Z,102551.75
2018-12-25T06:37:45.058Z,102517.06
2018-12-25T06:40:06.408Z,102556.80
2018-12-25T06:42:27.745Z,102520.16
2018-12-25T06:44:49.007Z,102532.41
2018-12-25T06:47:10.277Z,102522.13
2018-12-25T06:49:31.684Z,102557.61
2018-12-25T06:51:44.313Z,102561.51
2018-12-25T06:54:05.701Z,102530.63
2018-12-25T06:56:20.199Z,102560.39
2018-12-25T06:58:41.793Z,102516.45
2018-12-25T07:01:03.158Z,102506.33
2018-12-25T07:03:24.497Z,102532.84
2018-12-25T07:05:45.825Z,102533.70
2018-12-25T07:08:07.105Z,102495.43
2018-12-25T07:10:28.449Z,102500.97
2018-12-25T07:12:49.714Z,102546.61
2018-12-25T07:15:11.018Z,102513.73
2018-12-25T07:17:32.590Z,102544.63
2018-12-25T07:19:53.845Z,102525.41
2018-12-25T07:22:15.102Z,102518.55
2018-12-25T07:24:36.441Z,102501.06
2018-12-25T07:26:57.830Z,102523.45
2018-12-25T07:29:19.092Z,102519.58
2018-12-25T07:31:40.606Z,102477.41
2018-12-25T07:34:01.955Z,102472.66
2018-12-25T07:36:23.266Z,102519.56
2018-12-25T07:38:44.581Z,102516.02
2018-12-25T07:41:05.895Z,102523.77
2018-12-25T07:43:27.246Z,102522.81
2018-12-25T07:45:48.527Z,102479.17
2018-12-25T07:48:09.889Z,102521.17
2018-12-25T07:50:11.405Z,102517.89
2018-12-25T07:52:32.674Z,102493.86
2018-12-25T07:54:47.674Z,102527.00
2018-12-25T07:57:08.931Z,102477.52
2018-12-25T07:59:30.204Z,102510.36
2018-12-25T08:01:51.501Z,102508.38
2018-12-25T08:04:12.763Z,102501.83
2018-12-25T08:06:34.306Z,102495.33
2018-12-25T08:08:55.565Z,102467.70
2018-12-25T08:11:16.826Z,102471.31
2018-12-25T08:13:38.143Z,102511.83
2018-12-25T08:15:59.482Z,102505.95
2018-12-25T08:18:20.725Z,102511.20
2018-12-25T08:20:42.295Z,102468.39
2018-12-25T08:23:03.616Z,102488.13
2018-12-25T08:25:24.876Z,102478.19
2018-12-25T08:27:46.646Z,102522.00
2018-12-25T08:30:07.932Z,102489.73
2018-12-25T08:32:29.198Z,102528.98
2018-12-25T08:34:30.655Z,102524.11
2018-12-25T08:36:52.220Z,102490.09
2018-12-25T08:38:53.632Z,102528.58
2018-12-25T08:41:14.914Z,102527.58
2018-12-25T08:43:36.520Z,102538.67
2018-12-25T08:45:58.207Z,102501.22
2018-12-25T08:48:21.426Z,102503.02
2018-12-25T08:50:42.686Z,102539.49
2018-12-25T08:52:57.149Z,102540.66
2018-12-25T08:55:18.441Z,102517.76
2018-12-25T08:57:39.767Z,102527.12
2018-12-25T09:00:01.168Z,102516.34
2018-12-25T09:02:22.472Z,102526.98
2018-12-25T09:04:43.748Z,102519.99
2018-12-25T09:07:05.071Z,102481.63
2018-12-25T09:09:26.411Z,102513.19
2018-12-25T09:11:47.779Z,102480.34
2018-12-25T09:13:49.218Z,102527.08
2018-12-25T09:16:10.592Z,102537.03
2018-12-25T09:18:31.875Z,102542.57
2018-12-25T09:20:53.173Z,102545.37
2018-12-25T09:23:14.748Z,102548.81
2018-12-25T09:25:36.323Z,102560.53
2018-12-25T09:27:58.122Z,102543.27
2018-12-25T09:30:19.747Z,102542.47
2018-12-25T09:32:41.330Z,102502.91
2018-12-25T09:35:03.809Z,102518.90
2018-12-25T09:37:27.046Z,102509.12
2018-12-25T09:39:48.689Z,102541.64
2018-12-25T09:42:11.852Z,102496.89
2018-12-25T09:44:35.053Z,102547.20
2018-12-25T09:46:49.824Z,102509.14
2018-12-25T09:48:51.519Z,102540.70
2018-12-25T09:51:14.734Z,102504.75
2018-12-25T09:53:36.326Z,102531.70
2018-12-25T09:55:58.109Z,102531.72
2018-12-25T09:58:19.729Z,102531.58
2018-12-25T10:00:41.286Z,102523.23
2018-12-25T10:03:02.966Z,102521.45
2018-12-25T10:05:26.097Z,102472.48
2018-12-25T10:07:49.260Z,102470.98
2018-12-25T10:10:30.746Z,102477.70
2018-12-25T10:12:52.300Z,102478.53
2018-12-25T10:15:13.910Z,102514.44
2018-12-25T10:17:35.486Z,102476.22
2018-12-25T10:19:58.754Z,102484.70
2018-12-25T10:22:20.529Z,102486.02
2018-12-25T10:24:43.715Z,102518.86
2018-12-25T10:27:26.768Z,102477.70
2018-12-25T10:29:48.547Z,102522.92
2018-12-25T10:32:10.106Z,102518.37
2018-12-25T10:34:31.716Z,102513.47
2018-12-25T10:36:53.369Z,102475.91
2018-12-25T10:39:14.930Z,102482.77
2018-12-25T10:41:36.549Z,102475.71
2018-12-25T10:43:59.724Z,102517.87
2018-12-25T10:46:21.302Z,102482.59
2018-12-25T10:48:36.953Z,102518.19
2018-12-25T10:50:59.033Z,102522.92
2018-12-25T10:53:22.218Z,102480.48
2018-12-25T10:55:43.920Z,102477.87
2018-12-25T10:58:25.063Z,102495.69
2018-12-25T11:00:48.267Z,102512.48
2018-12-25T11:02:49.726Z,102507.75
2018-12-25T11:05:10.973Z,102477.21
2018-12-25T11:07:32.321Z,102510.98
2018-12-25T11:09:53.573Z,102476.20
2018-12-25T11:12:14.867Z,102500.23
2018-12-25T11:15:03.221Z,102469.36
2018-12-25T11:17:24.538Z,102473.12
2018-12-25T11:19:47.753Z,102472.96
2018-12-25T11:22:09.030Z,102509.34
2018-12-25T11:24:30.373Z,102515.22
2018-12-25T11:26:51.691Z,102476.22
2018-12-25T11:29:12.956Z,102474.11
2018-12-25T11:31:34.411Z,102508.53
2018-12-25T11:33:55.699Z,102477.87
2018-12-25T11:36:16.950Z,102517.37
2018-12-25T11:38:38.272Z,102529.31
2018-12-25T11:40:59.637Z,102520.98
2018-12-25T11:43:20.991Z,102524.72
2018-12-25T11:45:42.295Z,102529.80
2018-12-25T11:48:03.891Z,102527.34
2018-12-25T11:50:18.490Z,102527.50
2018-12-25T11:52:39.751Z,102501.37
2018-12-25T11:55:01.081Z,102531.75
2018-12-25T11:57:22.333Z,102495.34
2018-12-25T11:59:43.588Z,102501.55
2018-12-25T12:02:04.923Z,102527.67
2018-12-25T12:04:26.272Z,102486.38
2018-12-25T12:06:47.578Z,102516.57
2018-12-25T12:09:08.839Z,102529.15
2018-12-25T12:11:30.398Z,102486.52
2018-12-25T12:13:51.651Z,102485.88
2018-12-25T12:16:12.968Z,102519.51
2018-12-25T12:18:34.492Z,102521.94
2018-12-25T12:20:55.734Z,102521.95
2018-12-25T12:23:16.990Z,102485.21
2018-12-25T12:25:38.547Z,102517.08
2018-12-25T12:27:59.798Z,102513.78
2018-12-25T12:30:21.176Z,102480.49
2018-12-25T12:32:42.568Z,102513.45
2018-12-25T12:35:04.037Z,102509.38
2018-12-25T12:37:25.357Z,102510.20
2018-12-25T12:39:46.630Z,102477.05
2018-12-25T12:42:08.026Z,102519.52
2018-12-25T12:44:29.409Z,102520.16
2018-12-25T12:46:51.007Z,102483.92
2018-12-25T12:49:06.083Z,102517.73
2018-12-25T12:51:27.395Z,102484.09
2018-12-25T12:53:48.711Z,102488.48
2018-12-25T12:55:50.138Z,102526.05
2018-12-25T12:58:11.662Z,102488.80
2018-12-25T13:00:32.928Z,102520.34
2018-12-25T13:02:54.183Z,102484.89
2018-12-25T13:05:15.520Z,102484.74
2018-12-25T13:07:56.914Z,102527.67
2018-12-25T13:10:18.205Z,102525.70
2018-12-25T13:12:39.484Z,102530.14
2018-12-25T13:15:00.804Z,102526.03
2018-12-25T13:17:22.071Z,102496.48
2018-12-25T13:19:43.335Z,102531.93
2018-12-25T13:22:04.778Z,102528.17
2018-12-25T13:24:26.080Z,102518.53
2018-12-25T13:26:47.353Z,102493.70
2018-12-25T13:29:08.692Z,102531.27
2018-12-25T13:31:29.960Z,102527.98
2018-12-25T13:33:51.479Z,102522.59
2018-12-25T13:36:12.856Z,102523.92
2018-12-25T13:38:34.161Z,102519.19
2018-12-25T13:40:55.452Z,102488.32
2018-12-25T13:43:16.715Z,102479.19
2018-12-25T13:45:31.332Z,102515.73
2018-12-25T13:47:52.714Z,102487.00
2018-12-25T13:50:13.978Z,102520.97
2018-12-25T13:52:35.238Z,102485.88
2018-12-25T13:54:56.628Z,102525.39
2018-12-25T13:57:17.950Z,102494.51
2018-12-25T13:59:39.216Z,102536.66
2018-12-25T14:02:00.469Z,102492.89
2018-12-25T14:04:21.785Z,102529.96
2018-12-25T14:06:43.046Z,102530.77
2018-12-25T14:11:54.418Z,102543.36
2018-12-25T14:14:15.674Z,102530.12
2018-12-25T14:16:36.978Z,102531.09
2018-12-25T14:18:58.283Z,102529.45
2018-12-25T14:21:19.548Z,102504.48
2018-12-25T14:23:40.892Z,102496.34
2018-12-25T14:26:02.164Z,102536.33
2018-12-25T14:28:23.502Z,102536.32
2018-12-25T14:30:44.774Z,102522.28
2018-12-25T14:33:06.309Z,102485.70
2018-12-25T14:35:27.555Z,102523.09
2018-12-25T14:37:42.710Z,102484.55
2018-12-25T14:42:52.001Z,102509.86
2018-12-25T14:45:13.349Z,102532.09
2018-12-25T14:47:34.628Z,102527.17
2018-12-25T14:49:49.517Z,102487.52
2018-12-25T14:52:10.831Z,102485.72
2018-12-25T14:54:32.165Z,102523.74
2018-12-25T14:56:53.495Z,102524.89
2018-12-25T14:59:15.181Z,102526.84
2018-12-25T15:01:36.463Z,102530.44
2018-12-25T15:03:57.757Z,102531.92
2018-12-25T15:06:19.030Z,102534.53
2018-12-25T15:08:40.395Z,102537.31
2018-12-25T15:11:01.772Z,102535.19
2018-12-25T15:13:23.037Z,102538.77
2018-12-25T15:15:44.439Z,102542.04
2018-12-25T15:18:05.838Z,102500.23
2018-12-25T15:20:27.194Z,102494.18
2018-12-25T15:22:48.467Z,102495.34
2018-12-25T15:24:50.176Z,102531.75
2018-12-25T15:27:11.433Z,102535.67
2018-12-25T15:29:32.805Z,102530.77
2018-12-25T15:31:54.138Z,102492.06
2018-12-25T15:34:17.294Z,102494.36
2018-12-25T15:36:38.622Z,102526.53
2018-12-25T15:38:59.989Z,102529.78
2018-12-25T15:41:21.245Z,102492.39
2018-12-25T15:43:42.569Z,102483.41
2018-12-25T15:46:03.838Z,102527.98
2018-12-25T15:48:25.155Z,102526.52
2018-12-25T15:50:40.023Z,102520.48
2018-12-25T15:53:01.327Z,102493.06
2018-12-25T15:55:22.581Z,102498.13
2018-12-25T15:57:43.846Z,102528.64
2018-12-25T16:00:26.950Z,102517.87
2018-12-25T16:02:48.294Z,102484.91
2018-12-25T16:05:09.573Z,102520.98
2018-12-25T16:07:30.848Z,102494.34
2018-12-25T16:09:52.186Z,102488.14
2018-12-25T16:12:13.445Z,102527.48
2018-12-25T16:14:34.711Z,102522.13
2018-12-25T16:16:56.023Z,102521.63
2018-12-25T16:19:17.283Z,102482.61
2018-12-25T16:21:58.482Z,102490.91
2018-12-25T16:24:39.608Z,102484.55
2018-12-25T16:27:01.058Z,102522.45
2018-12-25T16:29:42.307Z,102525.37
2018-12-25T16:32:03.837Z,102513.27
2018-12-25T16:34:25.107Z,102523.57
2018-12-25T16:36:46.361Z,102481.63
2018-12-25T16:39:01.107Z,102518.53
2018-12-25T16:41:22.371Z,102486.69
2018-12-25T16:43:45.544Z,102516.38
2018-12-25T16:46:06.868Z,102519.16
2018-12-25T16:48:28.150Z,102513.77
2018-12-25T16:50:49.411Z,102479.35
2018-12-25T16:53:10.877Z,102516.55
2018-12-25T16:55:32.141Z,102515.73
2018-12-25T16:57:53.405Z,102510.52
2018-12-25T17:00:14.846Z,102514.45
2018-12-25T17:02:36.161Z,102514.27
2018-12-25T17:04:57.440Z,102505.94
2018-12-25T17:07:18.755Z,102479.01
2018-12-25T17:09:40.015Z,102510.34
2018-12-25T17:12:01.268Z,102498.91
2018-12-25T17:14:22.589Z,102467.59
2018-12-25T17:16:43.859Z,102508.39
2018-12-25T17:19:05.223Z,102511.97
2018-12-25T17:21:26.556Z,102507.09
2018-12-25T17:23:27.994Z,102510.34
2018-12-25T17:25:49.271Z,102471.66
2018-12-25T17:28:10.555Z,102511.81
2018-12-25T17:30:31.805Z,102476.25
2018-12-25T17:32:53.175Z,102475.41
2018-12-25T17:35:14.451Z,102509.04
2018-12-25T17:37:35.690Z,102476.06
2018-12-25T17:39:50.906Z,102514.58
2018-12-25T17:42:12.156Z,102475.25
2018-12-25T17:44:33.418Z,102520.48
2018-12-25T17:46:54.881Z,102519.48
2018-12-25T17:49:16.154Z,102493.38
2018-12-25T17:51:37.426Z,102473.30
2018-12-25T17:53:59.069Z,102515.25
2018-12-25T17:56:20.293Z,102479.33
2018-12-25T17:58:41.559Z,102521.79
2018-12-25T18:01:02.864Z,102524.89
2018-12-25T18:03:24.130Z,102532.08
2018-12-25T18:05:45.509Z,102534.69
2018-12-25T18:08:06.777Z,102534.37
2018-12-25T18:10:28.129Z,102499.27
2018-12-25T18:12:49.442Z,102502.86
2018-12-25T18:15:10.820Z,102540.89
2018-12-25T18:17:32.086Z,102537.97
2018-12-25T18:19:53.441Z,102542.36
2018-12-25T18:22:14.724Z,102542.68
2018-12-25T18:24:36.038Z,102536.33
2018-12-25T18:26:57.398Z,102535.00
2018-12-25T18:29:18.670Z,102503.02
2018-12-25T18:31:39.980Z,102529.30
2018-12-25T18:34:21.239Z,102495.98
2018-12-25T18:36:42.608Z,102496.16
2018-12-25T18:39:04.796Z,102531.91
2018-12-25T18:41:19.565Z,102535.36
2018-12-25T18:43:40.915Z,102535.83
2018-12-25T18:46:02.183Z,102534.69
2018-12-25T18:48:23.500Z,102522.13
2018-12-25T18:50:44.850Z,102531.75
2018-12-25T18:53:06.156Z,102526.86
2018-12-25T18:55:27.494Z,102523.92
2018-12-25T18:57:48.812Z,102486.69
2018-12-25T19:00:10.161Z,102529.95
2018-12-25T19:02:31.456Z,102528.31
2018-12-25T19:04:52.748Z,102493.06
2018-12-25T19:07:14.101Z,102498.11
2018-12-25T19:09:35.399Z,102489.80
2018-12-25T19:11:56.703Z,102532.58
2018-12-25T19:14:18.016Z,102529.78
2018-12-25T19:16:19.488Z,102532.75
2018-12-25T19:18:40.872Z,102499.44
2018-12-25T19:21:02.146Z,102531.11
2018-12-25T19:23:23.440Z,102491.91
2018-12-25T19:25:44.854Z,102535.68
2018-12-25T19:28:06.215Z,102530.44
2018-12-25T19:30:27.480Z,102504.31
2018-12-25T19:32:48.820Z,102495.66
2018-12-25T19:35:10.152Z,102532.73
2018-12-25T19:37:31.536Z,102513.30
2018-12-25T19:39:52.877Z,102498.77
2018-12-25T19:42:08.322Z,102540.73
2018-12-25T19:44:29.684Z,102538.95
2018-12-25T19:47:10.935Z,102546.14
2018-12-25T19:49:32.197Z,102542.53
2018-12-25T19:51:33.591Z,102539.11
2018-12-25T19:53:54.906Z,102529.62
2018-12-25T19:56:16.188Z,102536.33
2018-12-25T19:58:37.709Z,102498.27
2018-12-25T20:00:39.187Z,102527.01
2018-12-25T20:03:22.798Z,102492.40
2018-12-25T20:09:49.190Z,102491.59
2018-12-25T20:12:50.232Z,102541.08
2018-12-25T20:19:05.572Z,102501.70
2018-12-25T20:25:38.210Z,102532.90
2018-12-25T20:28:39.222Z,102495.02
2018-12-25T20:31:40.320Z,102535.01
2018-12-25T20:34:23.445Z,102496.02
2018-12-25T20:37:25.060Z,102533.22
2018-12-25T20:40:26.147Z,102536.97
2018-12-25T20:46:40.911Z,102504.66
2018-12-25T20:49:23.990Z,102497.47
2018-12-25T20:52:07.107Z,102534.05
2018-12-25T20:54:50.151Z,102496.65
2018-12-25T20:57:33.452Z,102530.27
2018-12-25T21:00:34.473Z,102498.27
2018-12-25T21:03:35.548Z,102483.42
2018-12-25T21:06:36.633Z,102523.73
2018-12-25T21:09:37.653Z,102482.77
2018-12-25T21:12:38.804Z,102509.05
2018-12-25T21:15:39.870Z,102512.81
2018-12-25T21:18:40.980Z,102467.91
2018-12-25T21:21:42.059Z,102474.44
2018-12-25T21:24:43.385Z,102468.91
2018-12-25T21:27:44.456Z,102461.39
2018-12-25T21:30:06.236Z,102466.95
2018-12-25T21:33:07.263Z,102472.33
2018-12-25T21:35:28.623Z,102465.30
2018-12-25T21:37:50.044Z,102493.84
2018-12-25T21:40:11.451Z,102492.55
2018-12-25T21:42:33.044Z,102490.87
2018-12-25T21:44:47.597Z,102455.47
2018-12-25T21:47:08.940Z,102492.17
2018-12-25T21:49:30.371Z,102485.64
2018-12-25T21:51:51.876Z,102450.23
2018-12-25T21:54:33.078Z,102483.34
2018-12-25T21:57:14.440Z,102479.12
2018-12-25T21:59:35.869Z,102482.04
2018-12-25T22:01:57.280Z,102446.15
2018-12-25T22:04:19.201Z,102449.42
2018-12-25T22:06:40.640Z,102480.73
2018-12-25T22:08:42.045Z,102489.38
2018-12-25T22:11:03.406Z,102453.31
2018-12-25T22:13:24.711Z,102452.83
2018-12-25T22:15:26.174Z,102489.70
2018-12-25T22:17:47.601Z,102450.38
2018-12-25T22:20:30.660Z,102451.86
2018-12-25T22:22:52.041Z,102447.75
2018-12-25T22:25:13.397Z,102485.59
2018-12-25T22:27:34.708Z,102483.15
2018-12-25T22:29:57.482Z,102445.30
2018-12-25T22:32:39.416Z,102447.29
2018-12-25T22:34:40.876Z,102489.53
2018-12-25T22:37:02.226Z,102484.77
2018-12-25T22:39:23.564Z,102447.73
2018-12-25T22:41:44.959Z,102435.48
2018-12-25T22:43:59.887Z,102467.31
2018-12-25T22:46:21.245Z,102429.31
2018-12-25T22:48:42.772Z,102473.33
2018-12-25T22:51:04.100Z,102471.23
2018-12-25T22:53:25.533Z,102473.02
2018-12-25T22:55:47.019Z,102436.78
2018-12-25T22:58:08.357Z,102467.95
2018-12-25T23:00:29.894Z,102433.55
2018-12-25T23:02:51.210Z,102474.98
2018-12-25T23:05:12.475Z,102460.61
2018-12-25T23:07:33.838Z,102425.53
2018-12-25T23:09:55.216Z,102464.19
2018-12-25T23:12:16.585Z,102459.47
2018-12-25T23:14:37.900Z,102417.89
2018-12-25T23:16:59.381Z,102416.25
2018-12-25T23:19:00.793Z,102451.65
2018-12-25T23:21:22.079Z,102449.52
2018-12-25T23:24:03.341Z,102446.90
2018-12-25T23:26:24.639Z,102444.78
2018-12-25T23:28:46.009Z,102428.77
2018-12-25T23:31:07.712Z,102431.23
2018-12-25T23:33:29.140Z,102394.69
2018-12-25T23:35:50.582Z,102433.97
2018-12-25T23:38:11.913Z,102436.77
2018-12-25T23:40:33.429Z,102401.21
2018-12-25T23:43:14.686Z,102433.31
2018-12-25T23:45:29.804Z,102409.52
2018-12-25T23:47:51.114Z,102387.00
2018-12-25T23:50:12.427Z,102434.28
2018-12-25T23:52:33.798Z,102435.73
2018-12-25T23:54:55.063Z,102392.19
2018-12-25T23:57:16.403Z,102423.67
2018-12-25T23:59:38.036Z,102424.30
